Ojai, CA (93023)

12:06 AM PDT on October 31, 2014 (GMT -0700)
Fairview Road | Change Station
CLOSE
Current Station
Personal Weather Station
Location: Ojai, CA
Elevation: 1056 ft
Nearby Weather Stations
Active Advisory: Special Statement

Elev 1056 ft 34.46 °N, 119.26 °W | Updated 14 minutes ago

Clear
Clear
56.8 °F
Feels Like 56.8 °F
N
0.0
Wind Variable Wind from NNW

Today
High -- | Low -- °F
--% Chance of Precip.
Yesterday
High -- | Low -- °F
Precip. -- in
7:16 AM 6:04 PM
First Quarter, 52% visible
Pressure 29.96 in
Visibility 8.0 miles
Clouds Clear
Dew Point 46 °F
Humidity 68%
Rainfall 0.00 in
Snow Depth Not available.
UV 0 out of 12
Pollen 3.80 out of 12
Air Quality Not available.
Flu Activity Not available.
METAR KOXR 310651Z AUTO 00000KT 8SM CLR 16/14 A2996 RMK AO2 SLP143 T01560139

More Conditions Fewer Conditions

Pressure 29.96 in
Visibility 8.0 miles
Clouds Clear
Dew Point 46 °F
Humidity 68%
Rainfall 0.00 in
Snow Depth Not available.
UV 0 out of 12
Pollen 3.80 out of 12
Air Quality Not available.
Flu Activity Not available.
METAR KOXR 310651Z AUTO 00000KT 8SM CLR 16/14 A2996 RMK AO2 SLP143 T01560139

More Conditions Fewer Conditions

10-Day Weather Forecast

Almanac

Astronomy

Oct. 31, 2014 Rise Set
Actual Time
Civil Twilight
Nautical Twilight
Astronomical Twilight
Moon
Length of Visible Light
Length of Day
Tomorrow will be .
, % of the Moon is Illuminated

Today's Extremes

State Highs State Lows

Community

WunderPhotos

Upload Photos

1,766,571 photos uploaded!

WunderBlogs® & News

Nearby

Air Quality

  Air Quality AQ Index Pollutant
Not available.

Snow Depth

Station Depth Elevation

Earthquake Activity

City Distance Mag. Time & Date
Minimum magnitude displayed is 2.5.

Coastal Water Temperatures

Place Temperature

Nearby Weather Stations